Angatuba, Brazil
Current Conditions -  °F | °C
As of 4:30 PM on Wednesday 26 Nov 2014 (Local Time) from SBKP Reporting Station
Rain Showers Rain Showers  
Wind Chill: 70°   Ceiling: Unl
Heat Index: 70°   Visibility: 5mi
Dew Point: 70°   Wind: 7mph
Humidity: 100%   Direction: 300°WNW
Pressure: NA   Gusts: NA
Location:  23.49°S, 48.42°W
Report Text: SBKP 261830Z 30006KT 8000 2500SE -SHRA FEW005 SCT045TCU 21/21 Q1011 RERA
Loading
Personal Weather Stations






























Interactive Weather Map New forecast layout! Learn more

10-Day Weather Forecast

Advertisements
Track Severe Weather on mobile